Time;durP1;ratioP1;P1;durP2;ratioP2;P2;SDS_P1;SDS_P2;PMS_P1;PMS_P2;Temp;Humidity;BMP_temperature;BMP_pressure;BME280_temperature;BME280_humidity;BME280_pressure;Samples;Min_cycle;Max_cycle;Signal;HPM_P1;HPM_P2
2022/07/02 00:01:57;;;;;;;2.85;1.50;;;;;;;13.39;100.00;99652.19;5091634;28;20490;-76
2022/07/02 00:04:31;;;;;;;3.70;1.00;;;;;;;13.31;100.00;99638.63;5091228;28;20056;-76
2022/07/02 00:06:57;;;;;;;12.45;2.13;;;;;;;13.41;100.00;99650.13;5091913;28;20040;-76
2022/07/02 00:09:26;;;;;;;2.50;1.33;;;;;;;13.30;100.00;99656.03;5085970;28;20048;-76
2022/07/02 00:11:57;;;;;;;1.90;1.48;;;;;;;13.21;100.00;99638.91;5086186;28;20430;-76
2022/07/02 00:14:24;;;;;;;3.13;1.20;;;;;;;13.19;100.00;99648.34;5091003;28;20491;-76
2022/07/02 00:16:52;;;;;;;1.65;1.25;;;;;;;13.08;100.00;99650.53;5091548;28;20067;-76
2022/07/02 00:19:19;;;;;;;4.35;1.40;;;;;;;13.30;100.00;99663.41;5091293;28;20048;-76
2022/07/02 00:21:47;;;;;;;4.10;1.50;;;;;;;13.03;100.00;99643.94;5091497;28;20044;-76
2022/07/02 00:24:13;;;;;;;3.63;1.42;;;;;;;12.98;100.00;99651.84;5089832;28;20056;-76
2022/07/02 00:26:46;;;;;;;5.82;1.58;;;;;;;13.11;100.00;99660.19;5089027;28;20052;-76
2022/07/02 00:29:20;;;;;;;1.70;1.15;;;;;;;13.03;100.00;99647.50;5078624;28;20407;-76
2022/07/02 00:31:49;;;;;;;5.10;1.42;;;;;;;12.83;100.00;99635.47;5091403;28;20059;-76
2022/07/02 00:34:15;;;;;;;2.08;1.30;;;;;;;12.82;100.00;99644.69;5089809;28;20051;-76
2022/07/02 00:36:43;;;;;;;4.30;1.27;;;;;;;12.88;100.00;99649.38;5090495;28;20043;-76
2022/07/02 00:39:10;;;;;;;5.88;1.30;;;;;;;12.85;100.00;99655.22;5091957;28;20055;-76
2022/07/02 00:41:36;;;;;;;2.05;1.20;;;;;;;12.74;100.00;99654.66;5093056;28;20060;-76
2022/07/02 00:44:06;;;;;;;5.95;1.58;;;;;;;12.78;100.00;99666.06;5090222;28;20052;-76
2022/07/02 00:46:35;;;;;;;1.65;1.38;;;;;;;12.60;100.00;99641.84;5090254;28;20451;-76
2022/07/02 00:49:02;;;;;;;2.55;1.42;;;;;;;12.71;100.00;99665.94;5093136;28;20545;-76
2022/07/02 00:51:29;;;;;;;5.28;1.60;;;;;;;12.76;100.00;99665.38;5092872;28;20048;-76
2022/07/02 00:53:55;;;;;;;2.15;1.00;;;;;;;12.71;100.00;99657.75;5092346;28;20517;-76
2022/07/02 00:56:22;;;;;;;1.55;1.30;;;;;;;12.74;100.00;99665.56;5092768;28;20052;-76
2022/07/02 00:58:48;;;;;;;9.00;1.63;;;;;;;12.57;100.00;99650.41;5093195;28;20439;-76
2022/07/02 01:01:15;;;;;;;7.28;1.38;;;;;;;12.77;100.00;99647.97;5090338;28;20507;-76
2022/07/02 01:03:43;;;;;;;3.67;1.30;;;;;;;12.66;100.00;99640.25;5089454;28;20051;-76
2022/07/02 01:06:10;;;;;;;2.97;1.42;;;;;;;12.61;100.00;99643.53;5092432;28;20044;-76
2022/07/02 01:11:24;;;;;;;4.75;1.45;;;;;;;12.72;100.00;99647.66;5072350;28;20109;-76
2022/07/02 01:13:54;;;;;;;5.43;1.77;;;;;;;12.60;100.00;99633.69;5079339;28;20048;-76
2022/07/02 01:16:21;;;;;;;4.55;1.55;;;;;;;12.50;100.00;99620.28;5092270;28;20052;-76
2022/07/02 01:18:49;;;;;;;3.85;1.42;;;;;;;12.43;100.00;99619.34;5092663;28;20052;-76
2022/07/02 01:21:15;;;;;;;3.53;1.90;;;;;;;12.55;100.00;99641.56;5091966;28;20063;-76
2022/07/02 01:23:43;;;;;;;4.75;1.30;;;;;;;12.47;100.00;99633.47;5091884;28;20431;-76
2022/07/02 01:26:10;;;;;;;3.45;1.48;;;;;;;12.47;100.00;99631.56;5091129;28;20047;-76
2022/07/02 01:28:36;;;;;;;4.35;1.40;;;;;;;12.26;100.00;99613.22;5082654;28;20047;-77
2022/07/02 01:31:03;;;;;;;7.15;1.20;;;;;;;12.41;100.00;99639.66;5092252;28;20040;-77
2022/07/02 01:33:31;;;;;;;2.97;1.58;;;;;;;12.33;100.00;99635.97;5091347;28;20503;-77
2022/07/02 01:35:58;;;;;;;4.38;1.30;;;;;;;12.20;100.00;99620.22;5092189;28;20048;-77
2022/07/02 01:38:25;;;;;;;6.35;1.40;;;;;;;12.10;100.00;99630.53;5092135;28;20403;-77
2022/07/02 01:41:38;;;;;;;2.65;1.42;;;;;;;12.28;100.00;99637.56;5088644;28;20522;-77
2022/07/02 01:43:39;;;;;;;4.82;1.25;;;;;;;12.23;100.00;99631.81;5085250;28;20047;-77
2022/07/02 01:46:05;;;;;;;1.42;1.10;;;;;;;12.01;100.00;99626.19;5091974;28;20048;-77
2022/07/02 01:48:32;;;;;;;4.15;0.90;;;;;;;12.12;100.00;99633.09;5092080;28;20048;-77
2022/07/02 01:50:58;;;;;;;2.67;1.40;;;;;;;12.08;100.00;99629.06;5091906;28;20047;-77
2022/07/02 01:53:25;;;;;;;6.63;1.50;;;;;;;12.12;100.00;99638.53;5090983;28;20044;-77
2022/07/02 01:55:53;;;;;;;5.18;1.17;;;;;;;11.97;100.00;99622.16;5089035;28;20480;-77
2022/07/02 01:58:19;;;;;;;6.25;1.23;;;;;;;12.10;100.00;99646.91;5087090;28;20048;-77
2022/07/02 02:00:45;;;;;;;6.10;1.38;;;;;;;12.06;100.00;99628.38;5091483;28;20051;-77
2022/07/02 02:03:12;;;;;;;5.20;1.40;;;;;;;12.01;100.00;99648.00;5090995;28;20055;-77
2022/07/02 02:05:38;;;;;;;4.70;1.50;;;;;;;11.93;100.00;99642.63;5091639;28;20506;-77
2022/07/02 02:08:05;;;;;;;1.52;1.13;;;;;;;12.00;100.00;99647.16;5091648;28;20060;-77
2022/07/02 02:10:32;;;;;;;10.05;1.30;;;;;;;11.80;100.00;99630.44;5089794;28;20047;-77
2022/07/02 02:12:59;;;;;;;3.33;1.13;;;;;;;11.81;100.00;99643.00;5090665;28;20044;-77
2022/07/02 02:15:26;;;;;;;4.05;0.95;;;;;;;11.51;100.00;99617.50;5088703;28;20070;-77
2022/07/02 02:17:52;;;;;;;4.55;1.20;;;;;;;11.55;100.00;99621.56;5091168;28;20040;-77
2022/07/02 02:20:19;;;;;;;8.90;1.52;;;;;;;11.56;100.00;99636.91;5091322;28;20044;-77
2022/07/02 02:22:45;;;;;;;4.55;1.15;;;;;;;11.50;100.00;99632.13;5073411;28;20516;-77
2022/07/02 02:25:11;;;;;;;8.88;1.15;;;;;;;11.41;100.00;99633.22;5087240;28;20407;-77
2022/07/02 02:27:38;;;;;;;4.45;1.05;;;;;;;11.37;100.00;99616.41;5090999;28;20435;-77
2022/07/02 02:30:07;;;;;;;1.48;1.17;;;;;;;11.39;100.00;99622.50;5091188;28;20052;-77
2022/07/02 02:32:36;;;;;;;5.18;1.20;;;;;;;11.43;100.00;99632.03;5090420;28;20044;-77
2022/07/02 02:35:04;;;;;;;8.18;1.20;;;;;;;11.36;100.00;99625.59;5091607;28;20044;-77
2022/07/02 02:37:30;;;;;;;11.13;1.33;;;;;;;11.38;100.00;99637.16;5087437;28;20055;-77
2022/07/02 02:39:57;;;;;;;8.18;1.48;;;;;;;11.48;100.00;99642.38;5086880;28;20051;-77
2022/07/02 02:42:23;;;;;;;1.73;1.00;;;;;;;11.55;100.00;99632.47;5090201;28;20140;-77
2022/07/02 02:44:50;;;;;;;8.65;1.40;;;;;;;11.54;100.00;99628.03;5091073;28;20047;-77
2022/07/02 02:47:21;;;;;;;5.38;1.50;;;;;;;11.39;100.00;99632.56;5090915;28;20052;-77
2022/07/02 02:49:48;;;;;;;2.55;1.27;;;;;;;11.25;100.00;99642.34;5091185;28;20052;-77
2022/07/02 02:52:14;;;;;;;2.92;1.15;;;;;;;11.24;100.00;99638.75;5083537;28;20063;-77
2022/07/02 02:54:41;;;;;;;5.40;1.50;;;;;;;11.24;100.00;99648.78;5090944;28;20055;-77
2022/07/02 02:57:07;;;;;;;3.85;1.45;;;;;;;11.18;100.00;99634.03;5087574;28;20048;-77
2022/07/02 02:59:34;;;;;;;3.83;1.15;;;;;;;11.22;100.00;99629.91;5090567;28;20044;-78
2022/07/02 03:02:00;;;;;;;5.10;1.48;;;;;;;11.31;100.00;99636.19;5090324;28;20055;-76
2022/07/02 03:04:28;;;;;;;5.10;1.40;;;;;;;11.14;100.00;99627.22;5090322;28;20051;-77
2022/07/02 03:06:54;;;;;;;2.75;1.38;;;;;;;11.01;100.00;99625.09;5085508;28;20503;-76
2022/07/02 03:09:21;;;;;;;4.38;1.50;;;;;;;11.01;100.00;99618.81;5090530;28;20044;-76
2022/07/02 03:11:47;;;;;;;5.43;1.25;;;;;;;10.91;100.00;99624.44;5090678;28;20044;-76
2022/07/02 03:14:14;;;;;;;6.50;1.65;;;;;;;10.95;100.00;99629.34;5089974;28;20052;-76
2022/07/02 03:16:40;;;;;;;6.72;1.50;;;;;;;11.05;100.00;99644.63;5090930;28;20052;-76
2022/07/02 03:19:06;;;;;;;5.78;1.92;;;;;;;10.89;100.00;99626.50;5087880;28;20051;-76
2022/07/02 03:21:34;;;;;;;2.85;1.60;;;;;;;11.07;100.00;99639.88;5086262;28;20050;-76
2022/07/02 03:24:01;;;;;;;5.38;1.45;;;;;;;10.95;100.00;99632.06;5093900;28;20048;-76
2022/07/02 03:26:27;;;;;;;4.10;1.27;;;;;;;11.04;100.00;99643.78;5086525;28;20075;-76
2022/07/02 03:28:54;;;;;;;6.93;1.40;;;;;;;11.07;100.00;99656.19;5095045;28;20051;-76
2022/07/02 03:31:20;;;;;;;3.70;1.27;;;;;;;11.30;100.00;99672.59;5094758;28;20055;-76
2022/07/02 03:33:47;;;;;;;7.10;1.55;;;;;;;11.09;100.00;99652.25;5092798;28;20048;-76
2022/07/02 03:36:13;;;;;;;9.75;1.70;;;;;;;11.21;100.00;99665.47;5092774;28;20052;-76
2022/07/02 03:38:41;;;;;;;10.20;1.98;;;;;;;11.10;100.00;99673.00;5094594;28;20140;-76
2022/07/02 03:41:08;;;;;;;3.47;1.48;;;;;;;11.11;100.00;99677.44;5094612;28;20048;-76
2022/07/02 03:43:35;;;;;;;4.20;1.75;;;;;;;10.88;100.00;99658.28;5093716;28;20052;-76
2022/07/02 03:46:01;;;;;;;9.35;1.80;;;;;;;10.98;100.00;99664.38;5094486;28;20384;-76
2022/07/02 03:48:28;;;;;;;6.45;1.80;;;;;;;10.97;100.00;99669.97;5093045;28;20055;-76
2022/07/02 03:50:54;;;;;;;10.88;1.90;;;;;;;10.85;100.00;99674.94;5092097;28;20044;-76
2022/07/02 03:53:21;;;;;;;3.65;1.45;;;;;;;10.96;100.00;99668.31;5093213;28;20051;-76
2022/07/02 03:55:48;;;;;;;8.32;1.85;;;;;;;10.93;100.00;99657.75;5094472;28;20048;-76
2022/07/02 03:58:15;;;;;;;7.72;1.30;;;;;;;10.83;100.00;99648.97;5094153;28;20427;-76
2022/07/02 04:00:41;;;;;;;5.53;1.65;;;;;;;10.85;100.00;99650.47;5094325;28;20044;-76
2022/07/02 04:03:08;;;;;;;7.25;1.70;;;;;;;10.96;100.00;99660.16;5084621;28;20048;-76
2022/07/02 04:05:34;;;;;;;8.30;1.83;;;;;;;10.91;100.00;99655.19;5084285;28;20055;-76
2022/07/02 04:08:01;;;;;;;5.30;1.55;;;;;;;11.07;100.00;99667.06;5091939;28;20052;-76
2022/07/02 04:10:27;;;;;;;5.47;1.48;;;;;;;11.00;100.00;99668.78;5093783;28;20056;-76
2022/07/02 04:12:55;;;;;;;5.55;1.50;;;;;;;10.96;100.00;99655.53;5093318;28;20044;-76
2022/07/02 04:15:22;;;;;;;2.35;1.55;;;;;;;10.96;100.00;99638.38;5094069;28;20479;-76
2022/07/02 04:17:48;;;;;;;3.65;1.60;;;;;;;11.14;100.00;99674.34;5086608;28;20047;-76
2022/07/02 04:20:15;;;;;;;9.38;1.52;;;;;;;10.97;100.00;99637.34;5093707;28;20648;-76
2022/07/02 04:22:41;;;;;;;2.53;1.70;;;;;;;11.16;100.00;99661.41;5087316;28;20064;-76
2022/07/02 04:25:08;;;;;;;5.75;1.80;;;;;;;11.25;100.00;99672.28;5092425;28;20127;-76
2022/07/02 04:27:35;;;;;;;3.63;1.83;;;;;;;11.24;100.00;99660.53;5093379;28;20052;-76
2022/07/02 04:30:03;;;;;;;7.18;2.67;;;;;;;11.33;100.00;99666.78;5093651;28;20055;-76
2022/07/02 04:32:29;;;;;;;5.53;2.35;;;;;;;11.48;100.00;99673.16;5091342;28;20051;-76
2022/07/02 04:34:56;;;;;;;1.67;1.50;;;;;;;11.47;100.00;99673.34;5092952;28;20048;-76
2022/07/02 04:37:22;;;;;;;4.47;1.73;;;;;;;11.58;100.00;99672.13;5093204;28;20051;-76
2022/07/02 04:39:48;;;;;;;10.73;2.15;;;;;;;11.66;100.00;99672.88;5093366;28;20052;-76
2022/07/02 04:42:15;;;;;;;4.85;2.42;;;;;;;11.74;100.00;99677.44;5093019;28;20040;-76
2022/07/02 04:44:41;;;;;;;6.80;2.92;;;;;;;11.83;100.00;99665.47;5093316;28;20052;-76
2022/07/02 04:47:09;;;;;;;7.63;2.78;;;;;;;11.86;100.00;99672.41;5085379;28;20077;-76
2022/07/02 04:49:36;;;;;;;3.05;2.08;;;;;;;11.94;100.00;99672.41;5093368;28;20044;-76
2022/07/02 04:52:02;;;;;;;6.65;2.08;;;;;;;12.00;100.00;99679.03;5092823;28;20055;-76
2022/07/02 04:54:28;;;;;;;8.98;2.17;;;;;;;12.07;100.00;99669.06;5090054;28;20040;-76
2022/07/02 04:56:55;;;;;;;2.10;1.88;;;;;;;12.12;100.00;99677.56;5089908;28;20040;-76
2022/07/02 04:59:21;;;;;;;6.55;2.10;;;;;;;12.18;100.00;99676.81;5093004;28;20047;-76
2022/07/02 05:01:48;;;;;;;5.07;2.20;;;;;;;12.65;100.00;99674.88;5091081;28;20411;-76
2022/07/02 05:04:16;;;;;;;5.38;2.45;;;;;;;13.49;100.00;99681.94;5092381;28;20044;-76
2022/07/02 05:06:42;;;;;;;3.08;1.92;;;;;;;14.38;100.00;99666.22;5092901;28;20055;-76
2022/07/02 05:09:09;;;;;;;6.38;1.70;;;;;;;15.15;100.00;99673.53;5092656;28;20052;-76
2022/07/02 05:11:35;;;;;;;3.08;1.48;;;;;;;15.70;100.00;99667.22;5087147;28;20048;-75
2022/07/02 05:14:01;;;;;;;3.67;1.45;;;;;;;16.16;95.34;99660.19;5090746;28;20380;-75
2022/07/02 05:16:28;;;;;;;2.95;1.42;;;;;;;16.67;91.23;99666.97;5092227;28;20522;-76
2022/07/02 05:18:55;;;;;;;5.50;1.73;;;;;;;16.83;88.57;99661.03;5092532;28;20051;-76
2022/07/02 05:21:23;;;;;;;5.68;1.50;;;;;;;17.14;88.11;99673.25;5092469;28;20055;-76
2022/07/02 05:23:49;;;;;;;9.32;1.70;;;;;;;17.30;86.26;99678.25;5091752;28;20051;-76
2022/07/02 05:26:16;;;;;;;6.35;1.52;;;;;;;17.51;86.20;99679.03;5091066;28;20411;-76
2022/07/02 05:28:42;;;;;;;3.35;1.48;;;;;;;17.62;86.19;99681.09;5091629;28;20105;-76
2022/07/02 05:31:08;;;;;;;3.88;1.30;;;;;;;17.73;86.29;99686.97;5089565;28;20052;-76
2022/07/02 05:33:35;;;;;;;7.25;1.20;;;;;;;18.07;85.40;99683.00;5091452;28;20552;-76
2022/07/02 05:36:01;;;;;;;7.90;1.48;;;;;;;18.33;84.01;99684.72;5092447;28;20048;-76
2022/07/02 05:38:29;;;;;;;4.78;1.40;;;;;;;18.09;84.97;99689.13;5092530;28;20051;-76
2022/07/02 05:40:55;;;;;;;10.32;1.52;;;;;;;18.45;83.34;99676.59;5092284;28;20495;-77
2022/07/02 05:43:22;;;;;;;6.00;1.40;;;;;;;18.72;82.29;99668.94;5086905;28;20043;-77
2022/07/02 05:45:49;;;;;;;6.70;1.40;;;;;;;19.03;81.28;99677.34;5090781;28;20048;-76
2022/07/02 05:48:16;;;;;;;1.80;1.38;;;;;;;19.13;79.82;99666.66;5092052;28;20078;-77
2022/07/02 05:50:43;;;;;;;7.38;1.23;;;;;;;19.27;78.86;99676.47;5092267;28;20051;-77
2022/07/02 05:53:09;;;;;;;2.58;1.20;;;;;;;19.40;77.39;99671.88;5091501;28;20048;-77
2022/07/02 05:55:37;;;;;;;3.78;1.00;;;;;;;19.70;76.34;99674.66;5092017;28;20051;-77
2022/07/02 05:58:03;;;;;;;7.50;1.08;;;;;;;19.69;76.28;99669.38;5088650;28;20056;-77
2022/07/02 06:00:32;;;;;;;5.43;1.30;;;;;;;19.89;75.62;99666.41;5088403;28;20093;-77
2022/07/02 06:02:59;;;;;;;4.93;1.33;;;;;;;19.78;76.65;99668.88;5091330;28;20056;-77
2022/07/02 06:08:09;;;;;;;4.22;1.10;;;;;;;20.28;74.17;99670.47;5091870;28;20431;-77
2022/07/02 06:10:37;;;;;;;4.05;1.10;;;;;;;20.63;72.70;99668.84;5087273;28;20385;-77
2022/07/02 06:13:03;;;;;;;4.88;1.13;;;;;;;20.69;75.41;99676.22;5090864;28;20044;-77
2022/07/02 06:15:30;;;;;;;2.67;0.98;;;;;;;20.80;74.00;99675.38;5091367;28;20059;-77
2022/07/02 06:18:00;;;;;;;2.35;0.77;;;;;;;20.83;71.01;99671.28;5091858;28;20050;-77
2022/07/02 06:20:26;;;;;;;;;;;;;;;21.03;70.19;99684.72;5091646;28;20080;-77
2022/07/02 06:22:53;;;;;;;2.38;0.68;;;;;;;21.06;72.78;99675.13;5090896;28;19920;-76
2022/07/02 06:25:19;;;;;;;0.80;0.70;;;;;;;21.38;70.02;99687.47;5072600;28;20044;-76
2022/07/02 06:27:47;;;;;;;0.93;0.70;;;;;;;21.19;70.85;99681.22;5088896;28;20051;-76
2022/07/02 06:30:14;;;;;;;1.00;0.68;;;;;;;21.31;67.80;99678.47;5090900;28;20056;-76
2022/07/02 06:32:40;;;;;;;2.28;0.70;;;;;;;21.30;67.50;99682.31;5090539;28;20376;-76
2022/07/02 06:35:07;;;;;;;2.10;0.73;;;;;;;21.35;67.31;99687.13;5091312;28;20052;-76
2022/07/02 06:37:33;;;;;;;1.55;0.75;;;;;;;21.06;68.84;99675.13;5091167;28;20055;-76
2022/07/02 06:40:00;;;;;;;0.95;0.60;;;;;;;21.50;66.76;99684.72;5089943;28;20405;-77
2022/07/02 06:42:29;;;;;;;1.63;0.80;;;;;;;21.78;66.63;99676.69;5082064;28;20048;-77
2022/07/02 06:44:58;;;;;;;5.63;0.50;;;;;;;21.83;65.32;99676.78;5087507;28;20060;-77
2022/07/02 06:47:25;;;;;;;2.80;0.70;;;;;;;21.63;67.45;99666.97;5090676;28;20047;-78
2022/07/02 06:49:54;;;;;;;0.80;0.60;;;;;;;21.86;64.50;99674.38;5090890;28;20078;-77
2022/07/02 06:52:21;;;;;;;1.07;0.60;;;;;;;22.31;63.07;99667.22;5090297;28;20051;-78
2022/07/02 06:54:48;;;;;;;0.88;0.80;;;;;;;21.81;64.80;99642.97;5086089;28;20319;-78
2022/07/02 06:57:15;;;;;;;4.13;1.23;;;;;;;22.20;62.98;99663.34;5090307;28;20132;-77
2022/07/02 06:59:41;;;;;;;0.47;0.40;;;;;;;22.08;62.33;99668.13;5091086;28;20052;-77
2022/07/02 07:02:09;;;;;;;3.60;0.73;;;;;;;21.97;64.90;99677.34;5087627;28;20055;-77
2022/07/02 07:04:36;;;;;;;1.30;0.47;;;;;;;22.38;62.08;99672.56;5090897;28;20381;-77
2022/07/02 07:07:05;;;;;;;1.35;0.40;;;;;;;22.69;61.44;99665.63;5090931;28;20055;-77
2022/07/02 07:09:34;;;;;;;1.92;0.70;;;;;;;22.80;62.42;99667.44;5086639;28;20614;-77
2022/07/02 07:12:04;;;;;;;2.38;0.70;;;;;;;22.92;60.62;99667.34;5090289;28;20091;-77
2022/07/02 07:14:31;;;;;;;0.50;0.50;;;;;;;23.08;60.45;99664.78;5090545;28;20051;-77
2022/07/02 07:16:57;;;;;;;2.97;0.73;;;;;;;23.00;57.95;99670.78;5089407;28;20044;-78
2022/07/02 07:19:25;;;;;;;2.97;0.65;;;;;;;23.21;58.66;99664.47;5090115;28;20126;-78
2022/07/02 07:21:52;;;;;;;2.75;0.70;;;;;;;23.39;57.59;99660.53;5090724;28;20473;-77
2022/07/02 07:24:18;;;;;;;2.72;0.50;;;;;;;23.21;57.31;99658.09;5086226;28;20542;-77
2022/07/02 07:26:45;;;;;;;0.45;0.40;;;;;;;23.48;58.30;99658.16;5087734;28;20186;-77
2022/07/02 07:29:12;;;;;;;2.60;0.70;;;;;;;23.39;55.47;99671.63;5090330;28;20048;-77
2022/07/02 07:31:38;;;;;;;2.00;0.80;;;;;;;23.63;56.18;99657.50;5090630;28;20052;-77
2022/07/02 07:34:05;;;;;;;1.48;0.63;;;;;;;23.46;53.94;99655.63;5088202;28;20050;-77
2022/07/02 07:36:34;;;;;;;0.85;0.40;;;;;;;23.81;55.93;99653.56;5090317;28;20044;-77
2022/07/02 07:39:02;;;;;;;0.52;0.47;;;;;;;23.99;54.77;99669.88;5090625;28;20080;-77
2022/07/02 07:41:29;;;;;;;1.90;0.52;;;;;;;23.91;53.01;99661.16;5088280;28;20059;-77
2022/07/02 07:43:55;;;;;;;0.70;0.40;;;;;;;23.98;54.79;99661.81;5089851;28;20040;-77
2022/07/02 07:46:22;;;;;;;0.40;0.40;;;;;;;23.85;54.95;99657.53;5090283;28;20055;-77
2022/07/02 07:48:49;;;;;;;0.50;0.50;;;;;;;23.78;52.75;99660.47;5089420;28;20055;-77
2022/07/02 07:51:16;;;;;;;2.53;0.70;;;;;;;23.84;52.00;99645.53;5089873;28;20416;-77
2022/07/02 07:53:44;;;;;;;2.33;0.57;;;;;;;23.83;49.90;99646.66;5089482;28;20158;-77
2022/07/02 07:56:11;;;;;;;1.45;0.50;;;;;;;23.74;50.83;99644.59;5088130;28;20044;-77
2022/07/02 07:58:37;;;;;;;0.65;0.60;;;;;;;23.87;49.92;99637.84;5090172;28;20048;-77
2022/07/02 08:01:04;;;;;;;0.90;0.75;;;;;;;24.03;50.55;99648.00;5090275;28;20054;-77
2022/07/02 08:03:30;;;;;;;4.40;0.65;;;;;;;23.75;50.39;99636.00;5089418;28;20052;-77
2022/07/02 08:05:57;;;;;;;0.88;0.47;;;;;;;23.62;48.45;99623.38;5085922;28;20421;-77
2022/07/02 08:08:24;;;;;;;2.30;0.57;;;;;;;23.70;49.70;99638.72;5089638;28;20048;-77
2022/07/02 08:10:52;;;;;;;0.60;0.60;;;;;;;23.63;47.23;99626.97;5090800;28;20501;-77
2022/07/02 08:13:19;;;;;;;1.85;0.55;;;;;;;24.13;49.07;99628.66;5093105;28;20048;-77
2022/07/02 08:15:45;;;;;;;2.38;0.50;;;;;;;24.18;48.99;99616.75;5093949;28;20051;-77
2022/07/02 08:18:12;;;;;;;0.32;0.32;;;;;;;23.78;47.02;99623.53;5093772;28;20419;-78
2022/07/02 08:20:39;;;;;;;1.98;0.60;;;;;;;23.53;49.43;99611.06;5093820;28;20416;-76
2022/07/02 08:23:05;;;;;;;1.98;0.60;;;;;;;23.82;49.64;99606.09;5090042;28;20563;-76
2022/07/02 08:25:31;;;;;;;3.17;0.75;;;;;;;24.37;47.56;99626.38;5091386;28;20482;-75
2022/07/02 08:27:59;;;;;;;0.55;0.50;;;;;;;24.40;46.61;99613.88;5093728;28;20055;-75
2022/07/02 08:30:26;;;;;;;0.70;0.55;;;;;;;24.31;49.47;99621.84;5093553;28;20464;-77
2022/07/02 08:32:52;;;;;;;2.53;0.70;;;;;;;24.21;46.92;99619.00;5092947;28;20052;-78
2022/07/02 08:35:19;;;;;;;2.30;0.57;;;;;;;23.97;45.48;99612.94;5085913;28;20403;-77
2022/07/02 08:37:46;;;;;;;1.30;0.50;;;;;;;23.61;45.46;99607.81;5092622;28;20131;-77
2022/07/02 08:40:13;;;;;;;0.75;0.50;;;;;;;24.08;45.39;99613.88;5089947;28;20048;-76
2022/07/02 08:42:42;;;;;;;2.33;0.45;;;;;;;24.14;43.60;99598.94;5089432;28;20040;-77
2022/07/02 08:45:12;;;;;;;0.88;0.45;;;;;;;24.41;43.15;99609.16;5094487;28;20138;-77
2022/07/02 08:47:41;;;;;;;1.10;0.43;;;;;;;24.41;44.46;99615.56;5094778;28;20441;-76
2022/07/02 08:50:11;;;;;;;4.72;0.40;;;;;;;23.98;43.62;99589.63;5094910;28;20094;-77
2022/07/02 08:52:39;;;;;;;2.40;0.60;;;;;;;24.11;45.78;99588.34;5093528;28;20052;-75
2022/07/02 08:55:07;;;;;;;11.40;1.08;;;;;;;24.10;45.74;99592.22;5094421;28;20046;-75
2022/07/02 08:57:34;;;;;;;2.63;0.70;;;;;;;24.39;43.25;99601.09;5089020;28;20781;-75
2022/07/02 09:00:00;;;;;;;3.42;0.50;;;;;;;24.34;44.43;99585.22;5090949;28;20052;-75
2022/07/02 09:02:28;;;;;;;0.80;0.47;;;;;;;24.29;44.01;99584.34;5087394;28;20044;-75
2022/07/02 09:04:58;;;;;;;0.65;0.38;;;;;;;24.64;44.28;99592.13;5092607;28;20610;-77
2022/07/02 09:07:25;;;;;;;;;;;;;;;24.31;42.63;99591.28;5093013;28;20259;-77
2022/07/02 09:09:53;;;;;;;5.70;1.08;;;;;;;24.84;42.39;99580.31;5088803;28;19920;-77
2022/07/02 09:12:23;;;;;;;2.22;0.47;;;;;;;24.65;42.75;99571.56;5091891;28;20048;-77
2022/07/02 09:14:49;;;;;;;1.55;0.50;;;;;;;24.60;44.00;99546.53;5085248;28;20048;-77
2022/07/02 09:17:16;;;;;;;0.52;0.52;;;;;;;24.46;43.43;99556.41;5079641;28;20283;-77
2022/07/02 09:19:44;;;;;;;1.45;0.45;;;;;;;24.70;42.66;99565.19;5088119;28;20036;-78
2022/07/02 09:22:10;;;;;;;1.35;0.55;;;;;;;24.89;43.08;99571.16;5091291;28;20063;-77
2022/07/02 09:24:39;;;;;;;1.85;0.45;;;;;;;25.01;45.38;99565.38;5092667;28;20044;-77
2022/07/02 09:27:08;;;;;;;1.38;0.32;;;;;;;25.03;41.96;99563.97;5090678;28;20109;-77
2022/07/02 09:29:42;;;;;;;0.90;0.30;;;;;;;24.90;43.25;99559.78;5092644;28;20048;-77
2022/07/02 09:32:09;;;;;;;5.78;0.35;;;;;;;24.76;42.74;99547.44;5090452;28;20526;-77
2022/07/02 09:34:41;;;;;;;0.40;0.40;;;;;;;24.68;42.07;99551.56;5092408;28;20523;-79
2022/07/02 09:37:14;;;;;;;0.75;0.40;;;;;;;24.92;42.93;99545.59;5090843;28;20054;-77
2022/07/02 09:39:43;;;;;;;0.70;0.30;;;;;;;24.49;40.81;99531.69;5092005;28;20500;-77
2022/07/02 09:42:10;;;;;;;1.90;0.30;;;;;;;24.52;43.40;99552.56;5091298;28;20080;-77
2022/07/02 09:44:36;;;;;;;0.77;0.40;;;;;;;24.51;41.72;99540.59;5092251;28;20044;-77
2022/07/02 09:47:03;;;;;;;1.08;0.50;;;;;;;24.95;41.48;99547.84;5091989;28;20044;-77
2022/07/02 09:49:29;;;;;;;0.88;0.40;;;;;;;24.88;41.22;99550.84;5091162;28;20048;-77
2022/07/02 09:51:56;;;;;;;0.50;0.32;;;;;;;24.88;41.03;99541.69;5089717;28;20056;-77
2022/07/02 09:54:25;;;;;;;2.55;0.32;;;;;;;24.99;38.07;99539.78;5090902;28;20059;-78
2022/07/02 09:56:53;;;;;;;0.45;0.30;;;;;;;25.11;39.15;99526.47;5091544;28;20487;-77
2022/07/02 09:59:20;;;;;;;2.53;0.40;;;;;;;25.23;38.28;99562.41;5091818;28;20043;-78
2022/07/02 10:01:47;;;;;;;0.60;0.43;;;;;;;25.54;37.98;99560.59;5091775;28;20048;-78
2022/07/02 10:04:14;;;;;;;4.03;0.63;;;;;;;25.38;38.86;99536.59;5091037;28;20052;-78
2022/07/02 10:06:42;;;;;;;1.05;0.55;;;;;;;25.64;39.41;99564.50;5090493;28;20056;-79
2022/07/02 10:09:11;;;;;;;0.38;0.30;;;;;;;25.42;37.84;99548.88;5089763;28;20074;-77
2022/07/02 10:11:39;;;;;;;0.70;0.60;;;;;;;25.10;36.83;99547.06;5091610;28;20044;-77
2022/07/02 10:14:06;;;;;;;1.98;0.55;;;;;;;25.42;40.24;99554.44;5090723;28;20044;-77
2022/07/02 10:16:32;;;;;;;1.35;0.50;;;;;;;25.57;35.71;99553.66;5091423;28;20135;-78
2022/07/02 10:18:59;;;;;;;0.55;0.40;;;;;;;25.52;37.97;99556.41;5091537;28;20054;-78
2022/07/02 10:21:28;;;;;;;0.88;0.40;;;;;;;25.54;38.97;99529.16;5091206;28;20505;-77
2022/07/02 10:23:55;;;;;;;3.80;0.88;;;;;;;25.85;37.07;99549.53;5070280;28;20055;-78
2022/07/02 10:26:23;;;;;;;0.65;0.40;;;;;;;25.85;36.45;99543.09;5085076;28;20491;-78
2022/07/02 10:28:53;;;;;;;2.75;0.45;;;;;;;25.51;37.15;99547.22;5089406;28;20274;-78
2022/07/02 10:31:20;;;;;;;3.13;0.50;;;;;;;25.86;38.25;99530.84;5091284;28;20403;-78
2022/07/02 10:33:54;;;;;;;1.33;0.22;;;;;;;26.28;39.08;99525.03;5090147;28;20093;-78
2022/07/02 10:36:22;;;;;;;0.30;0.30;;;;;;;26.41;36.86;99518.06;5089743;28;20052;-77
2022/07/02 10:38:57;;;;;;;2.58;0.45;;;;;;;26.27;37.46;99512.22;5088403;28;20059;-78
2022/07/02 10:41:25;;;;;;;1.55;0.30;;;;;;;26.30;36.23;99511.66;5071447;28;20098;-78
2022/07/02 10:43:55;;;;;;;0.40;0.28;;;;;;;26.16;35.67;99510.53;5069737;28;20067;-77
2022/07/02 10:46:24;;;;;;;0.30;0.20;;;;;;;26.22;35.62;99514.16;5071025;28;20047;-77
2022/07/02 10:48:52;;;;;;;1.58;0.50;;;;;;;26.57;37.91;99498.50;5070372;28;20079;-77
2022/07/02 10:51:20;;;;;;;0.30;0.20;;;;;;;26.81;36.55;99509.88;5071106;28;20134;-77
2022/07/02 10:53:49;;;;;;;7.30;0.55;;;;;;;26.52;35.49;99515.25;5077240;28;20094;-78
2022/07/02 10:56:16;;;;;;;0.63;0.47;;;;;;;26.36;37.11;99489.34;5084532;28;20052;-77
2022/07/02 10:58:42;;;;;;;2.47;0.40;;;;;;;26.42;36.46;99500.22;5070675;28;20045;-77
2022/07/02 11:01:12;;;;;;;2.28;0.38;;;;;;;26.33;34.41;99496.31;5077106;28;20127;-78
2022/07/02 11:03:50;;;;;;;0.65;0.30;;;;;;;26.20;38.32;99506.09;5089967;28;20044;-78
2022/07/02 11:06:21;;;;;;;0.90;0.40;;;;;;;26.76;39.30;99501.53;5089461;28;20183;-77
2022/07/02 11:08:52;;;;;;;4.22;0.60;;;;;;;26.63;36.83;99487.06;5090432;28;20040;-78
2022/07/02 11:11:22;;;;;;;1.80;0.50;;;;;;;26.96;37.78;99479.16;5090985;28;20051;-77
2022/07/02 11:13:49;;;;;;;;;;;;;;;27.22;37.35;99492.97;5088900;28;20057;-78
2022/07/02 11:16:24;;;;;;;0.38;0.30;;;;;;;26.90;37.74;99485.03;5090919;28;20290;-78
2022/07/02 11:18:52;;;;;;;3.70;0.55;;;;;;;27.05;36.00;99500.88;5090232;28;20055;-78
2022/07/02 11:21:19;;;;;;;0.65;0.30;;;;;;;26.88;35.26;99495.66;5090492;28;20052;-77
2022/07/02 11:23:46;;;;;;;0.98;0.52;;;;;;;26.90;36.26;99462.72;5081864;28;20049;-77
2022/07/02 11:26:16;;;;;;;0.47;0.30;;;;;;;27.55;38.59;99491.41;5088096;28;20048;-78
2022/07/02 11:28:43;;;;;;;1.42;0.50;;;;;;;27.43;34.29;99485.34;5088696;28;20078;-78
2022/07/02 11:31:10;;;;;;;0.73;0.38;;;;;;;27.19;36.83;99477.63;5076555;28;20411;-78
2022/07/02 11:33:44;;;;;;;0.70;0.38;;;;;;;27.19;36.35;99491.59;5069774;28;20052;-77
2022/07/02 11:36:11;;;;;;;0.52;0.52;;;;;;;26.90;38.25;99468.28;5070400;28;20508;-77